createdAt,value
2022-11-05T03:00:42.545Z,93.24
2022-11-05T03:02:21.577Z,93.14
2022-11-05T03:03:52.540Z,93.04
2022-11-05T03:08:15.652Z,92.73
2022-11-05T03:09:49.980Z,92.17
2022-11-05T03:12:14.258Z,91.55
2022-11-05T03:15:42.968Z,91.53
2022-11-05T03:21:17.333Z,93.27
2022-11-05T03:22:25.273Z,93.31
2022-11-05T03:23:22.729Z,93.68
2022-11-05T03:24:17.873Z,94.03
2022-11-05T03:25:20.266Z,93.93
2022-11-05T03:26:20.380Z,93.93
2022-11-05T03:27:19.345Z,94.34
2022-11-05T03:28:22.669Z,94.08
2022-11-05T03:29:18.414Z,94.08
2022-11-05T03:30:19.100Z,93.87
2022-11-05T03:31:18.618Z,94.08
2022-11-05T03:32:19.358Z,94.24
2022-11-05T03:33:21.921Z,94.38
2022-11-05T03:34:25.716Z,94.34
2022-11-05T03:35:43.183Z,94.34
2022-11-05T03:41:16.418Z,95.17
2022-11-05T03:42:19.675Z,95.27
2022-11-05T03:43:17.821Z,94.96
2022-11-05T03:44:51.088Z,95.48
2022-11-05T03:48:09.160Z,95.43
2022-11-05T03:52:47.819Z,95.23
2022-11-05T03:53:56.547Z,95.12
2022-11-05T03:56:12.932Z,95.33
2022-11-05T03:56:51.448Z,94.92
2022-11-05T04:03:45.743Z,95.43
2022-11-05T04:04:46.429Z,95.33
2022-11-05T04:05:46.062Z,95.43
2022-11-05T04:06:52.101Z,95.43
2022-11-05T04:14:47.635Z,94.05
2022-11-05T04:15:53.352Z,93.99
2022-11-05T04:16:50.688Z,94.05
2022-11-05T04:18:17.275Z,94.05
2022-11-05T04:18:47.750Z,94.05
2022-11-05T04:19:54.667Z,93.90
2022-11-05T04:20:48.442Z,93.39
2022-11-05T04:21:49.029Z,93.76
2022-11-05T04:22:48.643Z,93.29
2022-11-05T04:23:57.172Z,93.08
2022-11-05T04:24:51.727Z,93.49
2022-11-05T04:25:48.194Z,93.24
2022-11-05T04:26:47.593Z,92.63
2022-11-05T04:27:52.746Z,93.04
2022-11-05T04:28:51.539Z,92.83
2022-11-05T04:29:50.702Z,92.83
2022-11-05T04:30:48.194Z,92.52
2022-11-05T04:31:53.546Z,91.80
2022-11-05T04:33:06.991Z,92.32
2022-11-05T04:33:49.274Z,92.73
2022-11-05T04:34:48.086Z,92.52
2022-11-05T04:35:49.696Z,92.52
2022-11-05T04:36:47.973Z,92.01
2022-11-05T04:37:48.693Z,91.91
2022-11-05T04:38:49.866Z,91.70
2022-11-05T04:39:48.399Z,91.80
2022-11-05T04:40:48.116Z,91.70
2022-11-05T04:41:47.994Z,91.08
2022-11-05T04:42:47.989Z,91.80
2022-11-05T04:43:47.355Z,92.01
2022-11-05T04:44:47.555Z,91.80
2022-11-05T04:46:41.866Z,91.19
2022-11-05T04:48:44.875Z,90.67
2022-11-05T04:57:50.267Z,91.58
2022-11-05T04:59:04.640Z,91.74
2022-11-05T04:59:52.202Z,90.66
2022-11-05T05:00:59.064Z,91.62
2022-11-05T05:01:54.532Z,91.72
2022-11-05T05:02:55.151Z,91.52
2022-11-05T05:04:02.377Z,91.66
2022-11-05T05:05:00.523Z,92.38
2022-11-05T05:05:53.701Z,92.59
2022-11-05T05:06:52.829Z,92.90
2022-11-05T05:07:51.567Z,93.01
2022-11-05T05:08:51.684Z,93.25
2022-11-05T05:09:51.702Z,93.91
2022-11-05T05:10:53.452Z,93.91
2022-11-05T05:11:50.254Z,94.32
2022-11-05T05:12:51.087Z,94.12
2022-11-05T05:13:53.497Z,94.12
2022-11-05T05:17:26.860Z,93.96
2022-11-05T05:21:02.510Z,94.17
2022-11-05T05:22:11.479Z,94.10
2022-11-05T05:31:08.435Z,93.65
2022-11-05T05:32:14.684Z,93.79
2022-11-05T05:33:08.908Z,93.38
2022-11-05T05:37:01.044Z,94.31
2022-11-05T05:40:35.934Z,94.42
2022-11-05T05:44:05.835Z,93.75
2022-11-05T06:05:02.066Z,93.51
2022-11-05T06:06:42.453Z,93.51
2022-11-05T06:08:48.313Z,93.20
2022-11-05T06:09:23.297Z,93.24
2022-11-05T06:13:08.299Z,93.14
2022-11-05T06:13:37.147Z,93.10
2022-11-05T06:15:03.263Z,93.66
2022-11-05T06:16:42.835Z,93.51
2022-11-05T06:17:57.769Z,94.13
2022-11-05T06:20:37.785Z,94.03
2022-11-05T06:23:58.106Z,93.14
2022-11-05T06:26:25.107Z,92.52
2022-11-05T06:35:24.263Z,93.04
2022-11-05T06:36:35.432Z,92.19
2022-11-05T06:37:29.857Z,92.81
2022-11-05T06:38:36.704Z,93.43
2022-11-05T06:39:32.812Z,93.23
2022-11-05T06:41:05.747Z,93.64
2022-11-05T06:41:30.871Z,94.06
2022-11-05T06:42:30.326Z,94.26
2022-11-05T06:43:34.633Z,94.16
2022-11-05T06:44:39.299Z,94.01
2022-11-05T06:45:41.189Z,94.06
2022-11-05T06:54:02.513Z,93.91
2022-11-05T06:55:14.417Z,93.18
2022-11-05T06:56:10.981Z,93.18
2022-11-05T06:57:26.923Z,93.60
2022-11-05T07:01:14.617Z,92.36
2022-11-05T07:02:18.298Z,92.40
2022-11-05T07:03:15.167Z,92.50
2022-11-05T07:04:15.158Z,92.30
2022-11-05T07:05:20.361Z,92.61
2022-11-05T07:06:24.978Z,93.12
2022-11-05T07:07:24.977Z,93.06
2022-11-05T07:08:19.098Z,93.79
2022-11-05T07:09:21.838Z,93.99
2022-11-05T07:10:33.900Z,93.99
2022-11-05T07:11:19.679Z,94.10
2022-11-05T07:12:42.152Z,94.31
2022-11-05T07:13:23.626Z,94.72
2022-11-05T07:14:22.078Z,95.03
2022-11-05T07:16:16.754Z,95.65
2022-11-05T07:18:14.215Z,95.29
2022-11-05T07:18:33.029Z,95.92
2022-11-05T07:19:49.146Z,95.81
2022-11-05T07:20:34.587Z,95.81
2022-11-05T07:21:22.083Z,95.67
2022-11-05T07:22:22.452Z,95.67
2022-11-05T07:23:24.386Z,95.67
2022-11-05T07:24:20.639Z,95.46
2022-11-05T07:25:21.356Z,95.04
2022-11-05T07:30:20.957Z,94.89
2022-11-05T07:31:29.607Z,94.94
2022-11-05T07:37:14.698Z,94.79
2022-11-05T07:52:52.584Z,93.84
2022-11-05T08:01:35.251Z,93.49
2022-11-05T08:27:17.562Z,91.87
2022-11-05T08:41:07.702Z,90.55
2022-11-05T08:42:09.882Z,89.94
2022-11-05T08:43:09.325Z,89.89
2022-11-05T08:44:09.008Z,90.09
2022-11-05T08:45:09.231Z,89.89
2022-11-05T08:53:03.265Z,89.81
2022-11-05T08:58:40.019Z,88.89
2022-11-05T08:59:43.069Z,88.78
2022-11-05T09:00:41.485Z,88.74
2022-11-05T09:01:41.488Z,88.64
2022-11-05T09:02:41.107Z,88.33
2022-11-05T09:03:40.983Z,88.23
2022-11-05T09:19:12.139Z,85.23
2022-11-05T09:20:12.378Z,86.01
2022-11-05T09:21:12.784Z,85.39
2022-11-05T09:22:14.468Z,85.39
2022-11-05T09:23:26.101Z,84.99
2022-11-05T09:24:14.147Z,84.78
2022-11-05T09:25:50.223Z,84.78
2022-11-05T09:58:54.294Z,83.19
2022-11-05T09:59:55.961Z,81.96
2022-11-05T10:00:55.615Z,80.22
2022-11-05T10:01:55.481Z,78.69
2022-11-05T10:02:55.409Z,78.69
2022-11-05T10:03:55.377Z,77.67
2022-11-05T10:04:55.383Z,79.37
2022-11-05T10:05:55.465Z,80.08
2022-11-05T10:06:55.373Z,80.90
2022-11-05T10:07:55.384Z,79.57
2022-11-05T10:08:55.370Z,77.73
2022-11-05T10:09:55.357Z,77.73
2022-11-05T10:10:55.344Z,77.32
2022-11-05T10:11:55.321Z,77.59
2022-11-05T10:12:55.406Z,77.80
2022-11-05T10:13:55.309Z,77.25
2022-11-05T10:14:55.230Z,75.31
2022-11-05T10:15:55.271Z,75.48
2022-11-05T10:16:55.344Z,77.52
2022-11-05T10:17:55.188Z,76.19
2022-11-05T10:18:55.160Z,77.22
2022-11-05T10:19:55.256Z,75.89
2022-11-05T10:20:55.299Z,76.46
2022-11-05T10:22:10.436Z,77.38
2022-11-05T10:22:57.177Z,76.84
2022-11-05T10:23:55.110Z,76.93
2022-11-05T10:24:55.111Z,76.22
2022-11-05T10:25:55.059Z,72.04
2022-11-05T10:26:55.131Z,70.44
2022-11-05T10:27:55.214Z,71.50
2022-11-05T10:28:55.045Z,73.27
2022-11-05T10:29:55.139Z,73.06
2022-11-05T10:30:55.110Z,72.14
2022-11-05T10:31:55.091Z,71.33
2022-11-05T10:32:56.066Z,71.42
2022-11-05T10:33:55.080Z,72.11
2022-11-05T10:34:55.025Z,71.22
2022-11-05T10:35:54.992Z,73.57
2022-11-05T10:36:54.986Z,72.99
2022-11-05T10:37:55.101Z,73.81
2022-11-05T10:38:54.968Z,72.48
2022-11-05T10:39:54.995Z,72.86
2022-11-05T10:40:54.921Z,73.40
2022-11-05T10:41:55.139Z,75.24
2022-11-05T10:42:55.064Z,75.89
2022-11-05T10:43:54.957Z,73.54
2022-11-05T10:44:54.966Z,74.22
2022-11-05T10:45:55.285Z,73.54
2022-11-05T10:46:54.927Z,73.10
2022-11-05T10:47:54.977Z,72.89
2022-11-05T10:48:54.880Z,73.50
2022-11-05T10:49:54.860Z,73.71
2022-11-05T10:50:54.923Z,71.73
2022-11-05T10:51:54.880Z,72.24
2022-11-05T10:52:54.874Z,73.27
2022-11-05T10:53:58.850Z,73.13
2022-11-05T10:54:56.808Z,70.51
2022-11-05T10:55:54.848Z,71.50
